createdAt,value
2022-09-23T00:02:10.940Z,101702.84
2022-09-23T00:04:41.472Z,101714.00
2022-09-23T00:07:09.890Z,101703.22
2022-09-23T00:09:38.005Z,101707.88
2022-09-23T00:12:09.032Z,101708.00
2022-09-23T00:14:38.750Z,101699.16
2022-09-23T00:17:07.210Z,101700.66
2022-09-23T00:19:35.688Z,101705.06
2022-09-23T00:22:05.667Z,101706.63
2022-09-23T00:24:34.123Z,101707.31
2022-09-23T00:27:02.575Z,101703.06
2022-09-23T00:29:31.682Z,101689.81
2022-09-23T00:31:59.837Z,101692.03
2022-09-23T00:34:28.058Z,101684.72
2022-09-23T00:36:56.889Z,101701.41
2022-09-23T00:39:27.001Z,101688.00
2022-09-23T00:41:55.212Z,101686.09
2022-09-23T00:44:44.970Z,101687.81
2022-09-23T00:47:17.930Z,101677.31
2022-09-23T00:49:48.056Z,101670.72
2022-09-23T00:52:20.398Z,101673.25
2022-09-23T00:54:53.417Z,101670.47
2022-09-23T00:57:22.369Z,101668.47
2022-09-23T00:59:51.737Z,101666.91
2022-09-23T01:02:21.978Z,101664.94
2022-09-23T01:04:51.627Z,101658.09
2022-09-23T01:07:19.856Z,101661.91
2022-09-23T01:09:50.073Z,101660.06
2022-09-23T01:12:37.910Z,101658.28
2022-09-23T01:15:15.534Z,101654.78
2022-09-23T01:17:52.843Z,101653.75
2022-09-23T01:20:41.872Z,101641.75
2022-09-23T01:23:29.697Z,101645.31
2022-09-23T01:26:16.152Z,101634.47
2022-09-23T01:29:08.664Z,101643.59
2022-09-23T01:31:48.974Z,101634.25
2022-09-23T01:34:24.509Z,101632.44
2022-09-23T01:36:57.135Z,101641.38
2022-09-23T01:39:36.143Z,101644.19
2022-09-23T01:42:17.915Z,101640.63
2022-09-23T01:44:52.288Z,101641.56
2022-09-23T01:47:27.435Z,101637.81
2022-09-23T01:50:00.108Z,101632.03
2022-09-23T01:52:33.519Z,101636.06
2022-09-23T01:55:08.674Z,101636.69
2022-09-23T01:57:40.364Z,101627.06
2022-09-23T02:00:12.762Z,101635.97
2022-09-23T02:02:49.607Z,101635.97
2022-09-23T02:05:23.367Z,101628.06
2022-09-23T02:07:57.991Z,101630.06
2022-09-23T02:10:31.468Z,101618.84
2022-09-23T02:13:05.416Z,101619.25
2022-09-23T02:15:40.208Z,101616.78
2022-09-23T02:18:15.325Z,101617.94
2022-09-23T02:20:44.545Z,101617.81
2022-09-23T02:23:15.849Z,101607.06
2022-09-23T02:26:04.101Z,101600.31
2022-09-23T02:28:37.732Z,101604.91
2022-09-23T02:31:12.156Z,101602.28
2022-09-23T02:33:47.125Z,101599.88
2022-09-23T02:36:26.081Z,101603.88
2022-09-23T02:38:58.352Z,101589.34
2022-09-23T02:41:32.314Z,101599.44
2022-09-23T02:44:06.222Z,101590.47
2022-09-23T02:46:35.354Z,101597.25
2022-09-23T02:49:11.137Z,101587.94
2022-09-23T02:51:41.159Z,101600.13
2022-09-23T02:54:14.880Z,101596.47
2022-09-23T02:56:43.353Z,101591.38
2022-09-23T02:59:13.733Z,101585.09
2022-09-23T03:01:56.332Z,101586.34
2022-09-23T03:04:36.392Z,101585.13
2022-09-23T03:07:11.633Z,101588.78
2022-09-23T03:09:48.578Z,101575.63
2022-09-23T03:12:35.976Z,101579.13
2022-09-23T03:15:17.760Z,101573.31
2022-09-23T03:17:53.738Z,101568.06
2022-09-23T03:20:30.250Z,101580.91
2022-09-23T03:23:02.561Z,101573.34
2022-09-23T03:25:33.675Z,101568.19
2022-09-23T03:28:02.712Z,101571.69
2022-09-23T03:30:35.543Z,101570.59
2022-09-23T03:33:06.873Z,101566.91
2022-09-23T03:35:57.885Z,101554.75
2022-09-23T03:38:31.256Z,101566.16
2022-09-23T03:41:02.899Z,101561.38
2022-09-23T03:43:36.565Z,101553.50
2022-09-23T03:46:08.747Z,101552.63
2022-09-23T03:48:37.020Z,101558.91
2022-09-23T03:51:21.645Z,101543.34
2022-09-23T03:53:50.248Z,101549.34
2022-09-23T03:56:18.428Z,101556.19
2022-09-23T03:58:46.604Z,101545.69
2022-09-23T04:01:15.791Z,101544.03
2022-09-23T04:03:44.007Z,101540.13
2022-09-23T04:06:13.912Z,101543.84
2022-09-23T04:08:42.048Z,101541.97
2022-09-23T04:11:10.175Z,101543.44
2022-09-23T04:13:38.299Z,101541.66
2022-09-23T04:16:06.829Z,101534.59
2022-09-23T04:18:35.165Z,101532.94
2022-09-23T04:21:03.291Z,101536.56
2022-09-23T04:23:32.770Z,101529.56
2022-09-23T04:26:00.928Z,101531.69
2022-09-23T04:28:29.387Z,101527.16
2022-09-23T04:30:57.897Z,101526.09
2022-09-23T04:33:26.942Z,101521.75
2022-09-23T04:35:56.832Z,101526.19
2022-09-23T04:38:25.371Z,101524.44
2022-09-23T04:40:54.965Z,101530.53
2022-09-23T04:43:24.031Z,101526.06
2022-09-23T04:46:00.414Z,101526.56
2022-09-23T04:48:28.887Z,101519.00
2022-09-23T04:51:04.033Z,101514.59
2022-09-23T04:53:32.323Z,101515.66
2022-09-23T04:56:06.120Z,101512.28
2022-09-23T04:58:34.675Z,101514.06
2022-09-23T05:01:10.100Z,101507.63
2022-09-23T05:03:38.781Z,101513.00
2022-09-23T05:06:07.871Z,101516.34
2022-09-23T05:08:36.223Z,101514.19
2022-09-23T05:11:06.568Z,101512.34
2022-09-23T05:13:35.349Z,101507.63
2022-09-23T05:16:06.231Z,101514.44
2022-09-23T05:18:35.998Z,101519.84
2022-09-23T05:21:05.090Z,101511.09
2022-09-23T05:23:33.322Z,101516.09
2022-09-23T05:26:04.528Z,101519.53
2022-09-23T05:28:35.815Z,101516.94
2022-09-23T05:31:05.321Z,101524.63
2022-09-23T05:33:34.393Z,101523.50
2022-09-23T05:36:03.088Z,101516.63
2022-09-23T05:38:32.752Z,101516.06
2022-09-23T05:41:03.164Z,101522.16
2022-09-23T05:43:31.761Z,101517.59
2022-09-23T05:46:08.149Z,101521.03
2022-09-23T05:48:38.084Z,101518.19
2022-09-23T05:51:09.098Z,101512.19
2022-09-23T05:53:38.110Z,101518.41
2022-09-23T05:56:07.178Z,101516.81
2022-09-23T05:58:35.503Z,101510.19
2022-09-23T06:01:11.474Z,101509.09
2022-09-23T06:03:40.092Z,101511.78
2022-09-23T06:06:14.501Z,101515.84
2022-09-23T06:08:43.068Z,101515.91
2022-09-23T06:11:12.367Z,101505.53
2022-09-23T06:13:41.365Z,101498.75
2022-09-23T06:16:13.615Z,101503.28
2022-09-23T06:18:42.849Z,101500.06
2022-09-23T06:21:14.314Z,101497.31
2022-09-23T06:23:42.716Z,101495.09
2022-09-23T06:26:12.592Z,101492.78
2022-09-23T06:28:42.950Z,101492.59
2022-09-23T06:31:15.421Z,101490.16
2022-09-23T06:33:45.293Z,101489.94
2022-09-23T06:36:25.109Z,101487.97
2022-09-23T06:39:02.816Z,101486.13
2022-09-23T06:41:30.956Z,101495.91
2022-09-23T06:43:59.593Z,101490.41
2022-09-23T06:46:29.405Z,101492.50
2022-09-23T06:48:57.638Z,101488.50
2022-09-23T06:51:25.759Z,101487.75
2022-09-23T06:53:53.913Z,101482.53
2022-09-23T06:56:22.972Z,101484.94
2022-09-23T06:58:53.088Z,101483.59
2022-09-23T07:01:22.249Z,101489.78
2022-09-23T07:03:52.052Z,101483.34
2022-09-23T07:06:20.267Z,101483.75
2022-09-23T07:08:48.466Z,101490.50
2022-09-23T07:11:19.372Z,101491.47
2022-09-23T07:13:47.508Z,101483.22
2022-09-23T07:16:15.699Z,101487.31
2022-09-23T07:18:44.317Z,101487.88
2022-09-23T07:21:16.064Z,101484.09
2022-09-23T07:23:44.459Z,101487.94
2022-09-23T07:26:13.365Z,101489.44
2022-09-23T07:28:41.719Z,101488.25
2022-09-23T07:31:11.812Z,101490.63
2022-09-23T07:33:44.081Z,101492.84
2022-09-23T07:36:18.469Z,101493.28
2022-09-23T07:38:47.555Z,101497.06
2022-09-23T07:41:17.772Z,101501.41
2022-09-23T07:43:46.584Z,101490.44
2022-09-23T07:46:17.547Z,101498.41
2022-09-23T07:48:47.148Z,101491.97
2022-09-23T07:51:20.233Z,101492.84
2022-09-23T07:53:49.371Z,101494.91
2022-09-23T07:56:19.313Z,101494.22
2022-09-23T07:59:00.022Z,101503.69
2022-09-23T08:01:31.222Z,101498.91
2022-09-23T08:04:03.273Z,101499.81
2022-09-23T08:06:33.605Z,101503.53
2022-09-23T08:09:02.677Z,101497.78
2022-09-23T08:11:31.294Z,101504.91
2022-09-23T08:13:59.594Z,101500.47
2022-09-23T08:16:27.807Z,101503.72
2022-09-23T08:18:56.036Z,101497.84
2022-09-23T08:21:24.269Z,101501.31
2022-09-23T08:23:53.725Z,101503.78
2022-09-23T08:26:22.562Z,101506.03
2022-09-23T08:28:54.491Z,101505.09
2022-09-23T08:31:23.545Z,101511.25
2022-09-23T08:33:55.125Z,101503.31
2022-09-23T08:36:23.889Z,101503.63
2022-09-23T08:38:54.308Z,101509.53
2022-09-23T08:41:30.463Z,101502.19
2022-09-23T08:44:03.138Z,101511.59
2022-09-23T08:46:36.076Z,101507.53
2022-09-23T08:49:06.569Z,101506.91
2022-09-23T08:51:40.833Z,101498.53
2022-09-23T08:54:12.036Z,101498.25
2022-09-23T08:56:43.542Z,101505.84
2022-09-23T08:59:19.102Z,101500.97
2022-09-23T09:01:51.400Z,101502.50
2022-09-23T09:04:23.886Z,101498.84
2022-09-23T09:07:12.477Z,101500.66
2022-09-23T09:09:52.197Z,101497.44
2022-09-23T09:12:25.167Z,101506.13
2022-09-23T09:14:59.140Z,101493.63
2022-09-23T09:17:35.324Z,101503.63
2022-09-23T09:20:18.776Z,101500.75
2022-09-23T09:22:54.301Z,101503.22
2022-09-23T09:25:34.335Z,101500.31
2022-09-23T09:28:06.018Z,101504.72
2022-09-23T09:30:36.155Z,101496.16
2022-09-23T09:33:09.749Z,101496.69
2022-09-23T09:35:42.976Z,101506.16
2022-09-23T09:38:11.369Z,101507.50
2022-09-23T09:40:47.464Z,101497.81
2022-09-23T09:43:21.696Z,101500.91
2022-09-23T09:46:02.060Z,101497.47
2022-09-23T09:48:37.805Z,101489.88
2022-09-23T09:51:19.394Z,101480.91
2022-09-23T09:53:47.579Z,101485.59
2022-09-23T09:56:18.661Z,101478.53
2022-09-23T09:58:49.605Z,101473.94
2022-09-23T10:01:22.649Z,101478.81
2022-09-23T10:03:56.866Z,101469.56
2022-09-23T10:06:27.096Z,101467.78
2022-09-23T10:09:14.751Z,101470.19
2022-09-23T10:12:03.673Z,101465.66
2022-09-23T10:14:31.808Z,101468.66
2022-09-23T10:17:05.599Z,101463.84
2022-09-23T10:19:36.605Z,101463.44
2022-09-23T10:22:09.691Z,101462.38
2022-09-23T10:24:37.947Z,101469.25
2022-09-23T10:27:11.818Z,101475.97
2022-09-23T10:29:41.841Z,101465.47
2022-09-23T10:32:25.664Z,101465.06
2022-09-23T10:34:56.958Z,101461.56
2022-09-23T10:37:33.844Z,101463.63
2022-09-23T10:40:31.079Z,101471.78
2022-09-23T10:43:37.377Z,101475.06
2022-09-23T10:46:26.598Z,101470.75
2022-09-23T10:49:12.200Z,101468.00
2022-09-23T10:51:48.573Z,101469.09
2022-09-23T10:54:27.344Z,101478.28
2022-09-23T10:57:02.819Z,101463.97
2022-09-23T10:59:56.224Z,101466.31
2022-09-23T11:02:40.573Z,101471.47
2022-09-23T11:05:35.962Z,101464.91
2022-09-23T11:08:28.766Z,101454.97
2022-09-23T11:11:13.560Z,101452.47
2022-09-23T11:13:54.961Z,101451.09
2022-09-23T11:16:36.848Z,101448.59
2022-09-23T11:19:32.322Z,101445.13
2022-09-23T11:22:22.392Z,101433.81
2022-09-23T11:25:03.481Z,101433.44
2022-09-23T11:27:43.688Z,101440.69
2022-09-23T11:30:14.151Z,101432.41
2022-09-23T11:33:18.301Z,101425.56
2022-09-23T11:35:51.295Z,101427.31
2022-09-23T11:38:25.905Z,101426.00
2022-09-23T11:41:00.113Z,101418.06
2022-09-23T11:43:33.472Z,101423.66
2022-09-23T11:46:05.963Z,101416.84
2022-09-23T11:48:42.473Z,101409.50
2022-09-23T11:51:16.057Z,101408.69
2022-09-23T11:53:47.994Z,101406.72
2022-09-23T11:56:34.239Z,101406.38
2022-09-23T11:59:11.496Z,101393.47
2022-09-23T12:01:45.981Z,101382.06
2022-09-23T12:04:23.933Z,101392.22
2022-09-23T12:06:59.664Z,101382.53
2022-09-23T12:09:57.410Z,101378.44
2022-09-23T12:12:31.056Z,101366.75
2022-09-23T12:15:05.678Z,101373.72
2022-09-23T12:17:56.841Z,101360.22
2022-09-23T12:20:54.587Z,101357.28
2022-09-23T12:23:55.528Z,101353.06
2022-09-23T12:26:26.561Z,101357.47
2022-09-23T12:29:01.181Z,101335.72
2022-09-23T12:31:33.040Z,101344.03
2022-09-23T12:34:17.651Z,101343.66
2022-09-23T12:36:47.702Z,101349.81
2022-09-23T12:39:18.512Z,101349.06
2022-09-23T12:41:52.183Z,101342.28
2022-09-23T12:44:33.237Z,101342.66
2022-09-23T12:47:37.729Z,101333.66
2022-09-23T12:50:39.376Z,101330.44
2022-09-23T12:53:52.771Z,101335.06
2022-09-23T12:56:25.364Z,101336.63
2022-09-23T12:59:14.016Z,101339.28
2022-09-23T13:01:43.042Z,101331.56
2022-09-23T13:04:48.689Z,101318.53
2022-09-23T13:07:19.058Z,101328.31
2022-09-23T13:09:50.610Z,101321.94
2022-09-23T13:12:25.195Z,101316.84
2022-09-23T13:14:58.069Z,101319.25
2022-09-23T13:17:31.704Z,101303.81
2022-09-23T13:20:02.463Z,101312.91
2022-09-23T13:23:07.948Z,101304.88
2022-09-23T13:25:42.961Z,101294.25
2022-09-23T13:28:26.264Z,101296.91
2022-09-23T13:30:54.804Z,101288.59
2022-09-23T13:33:35.266Z,101281.00
2022-09-23T13:36:06.718Z,101278.25
2022-09-23T13:38:35.468Z,101291.56
2022-09-23T13:41:08.555Z,101286.66
2022-09-23T13:43:42.952Z,101284.44
2022-09-23T13:46:14.231Z,101272.53
2022-09-23T13:48:45.663Z,101270.84
2022-09-23T13:51:21.904Z,101273.34
2022-09-23T13:53:54.382Z,101260.16
2022-09-23T13:56:24.073Z,101254.56
2022-09-23T13:58:56.116Z,101251.69
2022-09-23T14:01:32.275Z,101249.47
2022-09-23T14:04:02.161Z,101243.69
2022-09-23T14:06:31.799Z,101253.97
2022-09-23T14:09:02.320Z,101238.78
2022-09-23T14:11:33.120Z,101236.84
2022-09-23T14:14:07.869Z,101227.00
2022-09-23T14:16:39.598Z,101225.69
2022-09-23T14:19:08.776Z,101224.63
2022-09-23T14:21:38.625Z,101236.19
2022-09-23T14:24:18.517Z,101223.09
2022-09-23T14:26:49.580Z,101226.84
2022-09-23T14:29:21.793Z,101224.06
2022-09-23T14:31:57.554Z,101226.84
2022-09-23T14:34:43.935Z,101229.53
2022-09-23T14:37:42.603Z,101229.06
2022-09-23T14:40:15.069Z,101221.25
2022-09-23T14:42:46.367Z,101226.16
2022-09-23T14:45:22.489Z,101210.47
2022-09-23T14:47:53.609Z,101210.34
2022-09-23T14:50:47.353Z,101210.34
2022-09-23T14:53:35.148Z,101215.56
2022-09-23T14:56:19.301Z,101213.38
2022-09-23T14:58:58.888Z,101214.13
2022-09-23T15:01:35.842Z,101208.41
2022-09-23T15:04:17.048Z,101210.84
2022-09-23T15:06:55.264Z,101203.88
2022-09-23T15:09:26.359Z,101200.84
2022-09-23T15:11:58.494Z,101196.22
2022-09-23T15:14:44.883Z,101182.56
2022-09-23T15:17:25.379Z,101182.09
2022-09-23T15:19:58.453Z,101192.31
2022-09-23T15:22:27.266Z,101170.66
2022-09-23T15:25:08.967Z,101177.22
2022-09-23T15:27:37.141Z,101177.50
2022-09-23T15:30:15.847Z,101165.31
2022-09-23T15:32:46.423Z,101169.66
2022-09-23T15:35:16.353Z,101162.47
2022-09-23T15:37:45.988Z,101163.69
2022-09-23T15:40:20.898Z,101164.75
2022-09-23T15:42:51.565Z,101154.25
2022-09-23T15:45:22.526Z,101150.03
2022-09-23T15:47:52.447Z,101147.50
2022-09-23T15:50:20.875Z,101149.28
2022-09-23T15:52:49.018Z,101143.31
2022-09-23T15:55:23.581Z,101130.63
2022-09-23T15:57:51.767Z,101131.72
2022-09-23T16:00:21.286Z,101123.31
2022-09-23T16:02:53.306Z,101107.53
2022-09-23T16:05:27.093Z,101104.06
2022-09-23T16:07:55.210Z,101107.97
2022-09-23T16:10:24.722Z,101103.06
2022-09-23T16:12:54.997Z,101110.44
2022-09-23T16:15:24.746Z,101107.34
2022-09-23T16:17:55.272Z,101110.38
2022-09-23T16:20:24.179Z,101109.19
2022-09-23T16:22:55.905Z,101107.56
2022-09-23T16:25:28.140Z,101112.03
2022-09-23T16:27:57.127Z,101105.91
2022-09-23T16:30:25.833Z,101096.03
2022-09-23T16:32:55.805Z,101099.13
2022-09-23T16:35:26.245Z,101101.63
2022-09-23T16:37:55.705Z,101104.66
2022-09-23T16:40:26.408Z,101109.81
2022-09-23T16:42:55.901Z,101099.72
2022-09-23T16:45:24.117Z,101105.81
2022-09-23T16:47:53.005Z,101098.44
2022-09-23T16:50:24.234Z,101098.59
2022-09-23T16:52:55.166Z,101094.03
2022-09-23T16:55:25.684Z,101084.53
2022-09-23T16:57:54.925Z,101088.69
2022-09-23T17:00:41.293Z,101085.94
2022-09-23T17:03:35.951Z,101086.22
2022-09-23T17:06:08.225Z,101079.16
2022-09-23T17:08:36.476Z,101084.66
2022-09-23T17:11:05.358Z,101073.72
2022-09-23T17:13:34.045Z,101066.88
2022-09-23T17:16:02.696Z,101067.91
2022-09-23T17:18:31.453Z,101061.28
2022-09-23T17:21:01.689Z,101060.72
2022-09-23T17:23:32.380Z,101061.75
2022-09-23T17:26:00.853Z,101057.97
2022-09-23T17:28:30.069Z,101063.00
2022-09-23T17:30:59.289Z,101057.59
2022-09-23T17:33:28.976Z,101057.19
2022-09-23T17:35:59.107Z,101059.50
2022-09-23T17:38:29.288Z,101050.94
2022-09-23T17:41:01.316Z,101050.16
2022-09-23T17:43:31.505Z,101048.38
2022-09-23T17:46:05.183Z,101052.16
2022-09-23T17:48:35.715Z,101049.03
2022-09-23T17:51:05.851Z,101061.47
2022-09-23T17:53:35.202Z,101055.38
2022-09-23T17:56:07.139Z,101054.28
2022-09-23T17:58:37.465Z,101053.19
2022-09-23T18:01:06.172Z,101059.53
2022-09-23T18:03:34.341Z,101067.88
2022-09-23T18:06:10.164Z,101066.44
2022-09-23T18:08:39.001Z,101070.13
2022-09-23T18:11:17.595Z,101061.47
2022-09-23T18:13:50.223Z,101064.44
2022-09-23T18:16:19.228Z,101071.13
2022-09-23T18:18:51.415Z,101066.84
2022-09-23T18:21:20.059Z,101062.81
2022-09-23T18:23:48.480Z,101067.25
2022-09-23T18:26:19.333Z,101068.94
2022-09-23T18:28:48.083Z,101062.53
2022-09-23T18:31:17.079Z,101066.94
2022-09-23T18:33:50.284Z,101064.97
2022-09-23T18:36:18.741Z,101063.03
2022-09-23T18:38:47.157Z,101063.31
2022-09-23T18:41:15.967Z,101061.66
2022-09-23T18:43:48.584Z,101058.25
2022-09-23T18:46:18.586Z,101057.19
2022-09-23T18:49:04.323Z,101062.50
2022-09-23T18:51:34.857Z,101062.50
2022-09-23T18:54:05.325Z,101061.06
2022-09-23T18:56:39.629Z,101051.75
2022-09-23T18:59:10.617Z,101057.19
2022-09-23T19:01:38.911Z,101064.13
2022-09-23T19:04:07.792Z,101055.94
2022-09-23T19:06:37.367Z,101061.19
2022-09-23T19:09:07.104Z,101056.38
2022-09-23T19:11:36.481Z,101066.41
2022-09-23T19:14:06.635Z,101062.28
2022-09-23T19:16:37.055Z,101065.25
2022-09-23T19:19:06.461Z,101060.22
2022-09-23T19:21:35.706Z,101055.59
2022-09-23T19:24:06.219Z,101059.56
2022-09-23T19:26:37.475Z,101061.31
2022-09-23T19:29:08.250Z,101061.53
2022-09-23T19:31:40.422Z,101061.44
2022-09-23T19:34:13.049Z,101062.88
2022-09-23T19:36:43.218Z,101062.16
2022-09-23T19:39:17.131Z,101058.34
2022-09-23T19:41:46.117Z,101057.25
2022-09-23T19:44:15.249Z,101052.50
2022-09-23T19:46:55.137Z,101055.53
2022-09-23T19:49:25.545Z,101054.13
2022-09-23T19:51:55.848Z,101048.38
2022-09-23T19:54:26.884Z,101049.16
2022-09-23T19:56:55.555Z,101050.91
2022-09-23T19:59:23.731Z,101047.66
2022-09-23T20:01:53.305Z,101050.38
2022-09-23T20:04:22.357Z,101047.59
2022-09-23T20:06:50.544Z,101051.16
2022-09-23T20:09:18.669Z,101038.56
2022-09-23T20:11:46.818Z,101036.53
2022-09-23T20:14:15.180Z,101042.97
2022-09-23T20:16:43.495Z,101047.75
2022-09-23T20:19:14.028Z,101039.03
2022-09-23T20:21:42.153Z,101037.63
2022-09-23T20:24:12.024Z,101034.50
2022-09-23T20:27:12.489Z,101036.53
2022-09-23T20:29:40.641Z,101026.03
2022-09-23T20:32:08.905Z,101035.72
2022-09-23T20:34:39.316Z,101038.41
2022-09-23T20:37:08.394Z,101041.38
2022-09-23T20:39:36.635Z,101027.34
2022-09-23T20:42:07.984Z,101027.97
2022-09-23T20:44:36.126Z,101035.13
2022-09-23T20:47:04.681Z,101041.19
2022-09-23T20:49:34.129Z,101031.78
2022-09-23T20:52:04.053Z,101033.72
2022-09-23T20:54:32.177Z,101031.31
2022-09-23T20:57:01.315Z,101027.66
2022-09-23T20:59:29.453Z,101021.50
2022-09-23T21:01:58.121Z,101028.34
2022-09-23T21:04:27.090Z,101021.13
2022-09-23T21:06:55.910Z,101012.53
2022-09-23T21:09:27.073Z,101026.25
2022-09-23T21:11:55.474Z,101022.53
2022-09-23T21:14:23.848Z,101021.03
2022-09-23T21:16:52.803Z,101020.59
2022-09-23T21:19:21.280Z,101017.69
2022-09-23T21:21:49.712Z,101011.47
2022-09-23T21:24:48.738Z,101016.66
2022-09-23T21:27:07.398Z,101017.38
2022-09-23T21:29:35.543Z,101017.38
2022-09-23T21:32:03.820Z,101019.72
2022-09-23T21:34:32.070Z,101014.25
2022-09-23T21:37:00.294Z,101015.81
2022-09-23T21:39:28.440Z,101013.53
2022-09-23T21:41:56.604Z,101015.00
2022-09-23T21:44:26.377Z,101013.41
2022-09-23T21:46:54.681Z,101007.94
2022-09-23T21:49:23.055Z,101008.25
2022-09-23T21:51:55.104Z,101002.28
2022-09-23T21:54:23.260Z,101001.78
2022-09-23T21:56:51.402Z,101000.25
2022-09-23T21:59:19.576Z,101009.97
2022-09-23T22:01:54.071Z,101003.06
2022-09-23T22:04:22.872Z,100994.19
2022-09-23T22:06:51.160Z,100995.13
2022-09-23T22:09:20.865Z,100998.00
2022-09-23T22:12:09.847Z,100998.75
2022-09-23T22:14:39.113Z,100996.78
2022-09-23T22:17:11.439Z,100990.97
2022-09-23T22:19:45.970Z,100999.91
2022-09-23T22:22:17.596Z,100994.66
2022-09-23T22:24:47.270Z,100996.97
2022-09-23T22:27:17.717Z,100995.34
2022-09-23T22:30:03.478Z,100995.72
2022-09-23T22:32:41.318Z,100988.19
2022-09-23T22:35:10.936Z,100986.75
2022-09-23T22:37:39.253Z,100987.41
2022-09-23T22:40:10.105Z,100986.22
2022-09-23T22:42:38.923Z,100982.97
2022-09-23T22:45:08.557Z,100984.56
2022-09-23T22:47:40.265Z,100984.13
2022-09-23T22:50:10.454Z,100978.22
2022-09-23T22:52:38.667Z,100979.31
2022-09-23T22:55:08.329Z,100984.03
2022-09-23T22:57:36.655Z,100986.72
2022-09-23T23:00:05.226Z,100986.22
2022-09-23T23:02:33.342Z,100982.63
2022-09-23T23:05:02.835Z,100980.94
2022-09-23T23:07:32.071Z,100979.56
2022-09-23T23:10:00.226Z,100969.75
2022-09-23T23:12:28.367Z,100971.59
2022-09-23T23:14:56.561Z,100974.25
2022-09-23T23:17:24.667Z,100971.91
2022-09-23T23:19:53.725Z,100970.72
2022-09-23T23:22:23.190Z,100965.53
2022-09-23T23:24:52.708Z,100960.91
2022-09-23T23:27:20.850Z,100961.03
2022-09-23T23:29:49.066Z,100958.19
2022-09-23T23:32:17.701Z,100964.44
2022-09-23T23:34:46.140Z,100956.50
2022-09-23T23:37:17.634Z,100959.94
2022-09-23T23:39:49.589Z,100953.91
2022-09-23T23:42:17.721Z,100962.88
2022-09-23T23:44:45.908Z,100963.72
2022-09-23T23:47:14.060Z,100947.00
2022-09-23T23:49:42.217Z,100953.81
2022-09-23T23:52:10.706Z,100947.94
2022-09-23T23:54:38.931Z,100959.94
2022-09-23T23:57:08.766Z,100958.66
2022-09-23T23:59:37.304Z,100956.25
